Time;durP1;ratioP1;P1;durP2;ratioP2;P2;SDS_P1;SDS_P2;PMS_P1;PMS_P2;Temp;Humidity;BMP_temperature;BMP_pressure;BME280_temperature;BME280_humidity;BME280_pressure;Samples;Min_cycle;Max_cycle;Signal;HPM_P1;HPM_P2
2021/07/08 00:03:03;;;;;;;15.48;7.17;;;;;;;20.42;75.72;101298.02;1736365;82;21225;-59
2021/07/08 00:06:08;;;;;;;9.95;7.05;;;;;;;20.43;75.66;101303.88;1736476;82;21347;-60
2021/07/08 00:09:17;;;;;;;10.45;6.95;;;;;;;20.40;75.49;101308.49;1722133;82;21923;-59
2021/07/08 00:12:23;;;;;;;10.58;6.40;;;;;;;20.39;75.42;101302.63;1736401;82;21358;-59
2021/07/08 00:15:31;;;;;;;15.45;6.97;;;;;;;20.38;75.26;101304.54;1736527;82;21414;-59
2021/07/08 00:18:38;;;;;;;11.22;7.03;;;;;;;20.37;74.95;101305.63;1736270;82;21905;-58
2021/07/08 00:21:44;;;;;;;16.57;6.78;;;;;;;20.33;74.66;101300.69;1736413;82;21442;-60
2021/07/08 00:24:51;;;;;;;9.73;6.55;;;;;;;20.27;74.50;101297.39;1736453;82;21414;-58
2021/07/08 00:27:58;;;;;;;9.08;6.70;;;;;;;20.18;74.37;101304.26;1736320;82;21216;-61
2021/07/08 00:31:06;;;;;;;19.57;7.35;;;;;;;20.09;74.55;101302.19;1736841;82;21883;-59
2021/07/08 00:34:12;;;;;;;14.63;6.30;;;;;;;20.03;74.67;101304.97;1736627;82;21347;-61
2021/07/08 00:37:18;;;;;;;9.25;6.65;;;;;;;19.98;74.77;101306.17;1737633;82;21327;-59
2021/07/08 00:40:29;;;;;;;9.13;5.87;;;;;;;19.94;74.71;101304.36;1736794;82;21374;-59
2021/07/08 00:43:36;;;;;;;12.07;7.33;;;;;;;19.91;74.66;101315.03;1736694;82;21209;-59
2021/07/08 00:46:42;;;;;;;11.03;6.37;;;;;;;19.86;74.62;101312.91;1735826;82;21280;-58
2021/07/08 00:49:46;;;;;;;13.30;6.67;;;;;;;19.80;74.67;101321.23;1736427;82;21378;-59
2021/07/08 00:52:53;;;;;;;14.43;7.50;;;;;;;19.73;74.81;101312.03;1736443;82;21698;-59
2021/07/08 00:56:06;;;;;;;11.43;5.97;;;;;;;19.68;74.98;101316.84;1736385;82;21216;-61
2021/07/08 00:59:18;;;;;;;9.38;6.37;;;;;;;19.63;75.16;101317.16;1736459;82;21695;-60
2021/07/08 01:02:24;;;;;;;11.18;6.12;;;;;;;19.57;75.25;101311.08;1736644;82;21868;-59
2021/07/08 01:05:38;;;;;;;12.25;6.35;;;;;;;19.53;75.32;101325.05;1737186;82;22217;-60
2021/07/08 01:08:44;;;;;;;10.32;6.37;;;;;;;19.53;75.33;101328.69;1736608;82;21216;-60
2021/07/08 01:11:53;;;;;;;9.18;6.45;;;;;;;19.50;75.21;101324.08;1736401;82;21461;-59
2021/07/08 01:14:59;;;;;;;10.75;6.55;;;;;;;19.46;75.16;101329.20;1736509;82;21343;-59
2021/07/08 01:18:06;;;;;;;13.38;6.50;;;;;;;19.44;75.22;101341.59;1736625;82;21316;-59
2021/07/08 01:21:36;;;;;;;12.03;6.87;;;;;;;19.41;75.26;101340.63;1736524;82;22137;-59
2021/07/08 01:24:41;;;;;;;10.53;6.12;;;;;;;19.36;75.34;101347.34;1736367;82;21848;-60
2021/07/08 01:27:46;;;;;;;15.50;6.95;;;;;;;19.31;75.47;101349.36;1736445;82;21339;-60
2021/07/08 01:30:51;;;;;;;11.15;6.15;;;;;;;19.27;75.42;101352.19;1736420;82;21406;-59
2021/07/08 01:33:57;;;;;;;14.30;7.08;;;;;;;19.17;75.45;101355.36;1736626;82;21397;-58
2021/07/08 01:37:04;;;;;;;13.62;6.50;;;;;;;19.12;75.59;101362.61;1739950;82;21812;-59
2021/07/08 01:40:15;;;;;;;14.05;6.92;;;;;;;19.04;75.70;101369.17;1736486;82;21270;-59
2021/07/08 01:43:23;;;;;;;11.73;6.95;;;;;;;19.00;75.80;101373.44;1721978;82;21288;-58
2021/07/08 01:46:29;;;;;;;10.38;5.97;;;;;;;18.99;75.85;101371.73;1737151;79;21331;-58
2021/07/08 01:49:35;;;;;;;8.35;6.03;;;;;;;18.97;75.60;101372.47;1736876;82;21829;-58
2021/07/08 01:52:41;;;;;;;12.25;5.95;;;;;;;18.91;75.51;101374.69;1736586;82;21355;-59
2021/07/08 01:55:48;;;;;;;9.43;5.90;;;;;;;18.92;75.52;101376.39;1736652;82;21447;-60
2021/07/08 01:58:56;;;;;;;9.15;5.42;;;;;;;18.94;75.26;101380.34;1736781;82;21386;-60
2021/07/08 02:02:01;;;;;;;19.75;6.42;;;;;;;18.95;74.97;101375.11;1736676;82;21423;-60
2021/07/08 02:05:07;;;;;;;8.03;5.40;;;;;;;18.96;74.68;101379.06;1736746;82;21586;-59
2021/07/08 02:08:14;;;;;;;11.30;5.60;;;;;;;18.99;74.50;101375.03;1736525;82;21228;-60
2021/07/08 02:11:20;;;;;;;10.32;5.72;;;;;;;19.00;74.26;101369.80;1721670;82;21706;-60
2021/07/08 02:14:28;;;;;;;12.18;6.28;;;;;;;19.02;73.87;101382.42;1736484;82;21201;-58
2021/07/08 02:17:33;;;;;;;10.45;5.97;;;;;;;19.01;73.72;101379.86;1736619;82;21454;-59
2021/07/08 02:20:39;;;;;;;14.18;6.42;;;;;;;18.98;73.62;101389.44;1736461;82;21244;-58
2021/07/08 02:23:44;;;;;;;11.43;5.95;;;;;;;18.97;73.55;101381.31;1736615;82;21366;-59
2021/07/08 02:26:49;;;;;;;20.05;5.78;;;;;;;18.96;73.41;101387.94;1736545;82;21240;-58
2021/07/08 02:29:55;;;;;;;14.43;8.15;;;;;;;18.91;73.36;101387.17;1736520;82;21462;-58
2021/07/08 02:33:03;;;;;;;21.02;11.97;;;;;;;18.92;73.32;101385.23;1736571;82;21338;-59
2021/07/08 02:36:08;;;;;;;27.35;14.30;;;;;;;18.92;73.14;101390.27;1736584;82;21382;-58
2021/07/08 02:39:15;;;;;;;31.75;20.05;;;;;;;18.90;73.00;101392.38;1736451;82;21626;-59
2021/07/08 02:42:21;;;;;;;31.45;19.25;;;;;;;18.93;72.93;101396.68;1736297;82;21220;-59
2021/07/08 02:45:30;;;;;;;20.05;11.70;;;;;;;18.97;72.68;101395.19;1736274;82;21371;-59
2021/07/08 02:48:36;;;;;;;21.35;12.23;;;;;;;19.01;72.45;101400.67;1732597;82;21854;-60
2021/07/08 02:51:44;;;;;;;24.12;18.70;;;;;;;19.02;72.12;101404.63;1730972;83;21408;-59
2021/07/08 02:54:51;;;;;;;21.12;16.67;;;;;;;19.04;71.99;101400.27;1730976;83;21165;-59
2021/07/08 02:58:02;;;;;;;21.75;14.00;;;;;;;19.00;71.79;101399.81;1731154;83;21375;-59
2021/07/08 03:01:10;;;;;;;18.02;12.78;;;;;;;19.01;71.85;101404.84;1731174;83;21213;-59
2021/07/08 03:04:18;;;;;;;21.93;14.65;;;;;;;19.02;71.94;101408.80;1731220;82;21292;-59
2021/07/08 03:07:25;;;;;;;21.50;11.85;;;;;;;19.06;71.96;101406.44;1731206;83;21355;-59
2021/07/08 03:10:34;;;;;;;14.95;10.55;;;;;;;19.09;71.94;101408.83;1731191;83;21414;-59
2021/07/08 03:13:42;;;;;;;14.60;9.63;;;;;;;19.13;71.97;101415.15;1731080;83;22118;-62
2021/07/08 03:16:51;;;;;;;13.15;8.48;;;;;;;19.22;71.60;101412.51;1731077;83;21386;-61
2021/07/08 03:19:59;;;;;;;11.18;7.10;;;;;;;19.29;71.27;101410.66;1730952;83;21362;-61
2021/07/08 03:23:07;;;;;;;12.63;7.30;;;;;;;19.40;71.23;101411.11;1730901;83;21390;-61
2021/07/08 03:26:13;;;;;;;10.50;6.15;;;;;;;19.48;70.80;101402.59;1730918;83;21959;-60
2021/07/08 03:29:18;;;;;;;14.20;6.67;;;;;;;19.52;70.42;101405.30;1730903;83;21371;-60
2021/07/08 03:32:25;;;;;;;9.15;5.15;;;;;;;19.54;70.37;101410.95;1730971;83;21343;-59
2021/07/08 03:35:33;;;;;;;12.15;5.87;;;;;;;19.58;70.35;101411.39;1731017;83;21347;-59
2021/07/08 03:38:39;;;;;;;9.58;5.70;;;;;;;19.66;70.24;101413.98;1731023;83;21331;-60
2021/07/08 03:41:45;;;;;;;12.33;5.62;;;;;;;19.76;70.03;101417.19;1730916;83;21371;-60
2021/07/08 03:44:52;;;;;;;10.08;5.92;;;;;;;19.86;69.96;101416.27;1734655;82;21354;-61
2021/07/08 03:48:02;;;;;;;10.98;5.78;;;;;;;19.92;69.90;101416.28;1731328;81;21201;-62
2021/07/08 03:51:09;;;;;;;13.65;6.65;;;;;;;19.96;69.68;101419.50;1738860;82;21903;-59
2021/07/08 03:54:15;;;;;;;17.15;6.67;;;;;;;20.02;69.59;101419.51;1738787;82;21217;-62
2021/07/08 03:57:24;;;;;;;10.93;5.80;;;;;;;20.11;69.51;101433.52;1738938;82;21188;-60
2021/07/08 04:00:35;;;;;;;10.23;5.75;;;;;;;20.22;69.34;101422.31;1738881;81;21240;-60
2021/07/08 04:03:42;;;;;;;7.35;5.40;;;;;;;20.32;69.09;101423.63;1738778;82;21366;-61
2021/07/08 04:06:49;;;;;;;11.48;5.47;;;;;;;20.42;68.75;101423.20;1738764;82;21378;-60
2021/07/08 04:09:57;;;;;;;9.78;5.22;;;;;;;20.50;68.27;101414.63;1739064;80;21418;-62
2021/07/08 04:13:05;;;;;;;11.40;5.17;;;;;;;20.57;67.63;101424.67;1695661;84;21861;-62
2021/07/08 04:16:14;;;;;;;7.25;5.00;;;;;;;20.60;67.60;101423.37;1695621;84;21257;-61
2021/07/08 04:19:21;;;;;;;11.30;5.42;;;;;;;20.66;67.40;101427.55;1695498;84;21873;-60
2021/07/08 04:22:28;;;;;;;8.95;5.05;;;;;;;20.76;67.19;101421.53;1695554;84;21373;-60
2021/07/08 04:25:37;;;;;;;12.25;5.25;;;;;;;20.86;67.05;101430.30;1695657;84;21202;-60
2021/07/08 04:28:45;;;;;;;7.03;4.83;;;;;;;20.94;66.46;101427.30;1695637;84;21237;-60
2021/07/08 04:31:55;;;;;;;11.18;5.08;;;;;;;21.03;66.42;101426.53;1677362;84;21269;-61
2021/07/08 04:35:04;;;;;;;14.03;5.08;;;;;;;21.12;65.55;101434.98;1695820;84;21872;-60
2021/07/08 04:38:13;;;;;;;6.42;5.20;;;;;;;21.17;65.25;101436.58;1695782;84;21472;-61
2021/07/08 04:41:23;;;;;;;6.37;4.78;;;;;;;21.24;65.12;101427.13;1695781;84;21229;-59
2021/07/08 04:44:31;;;;;;;9.20;4.60;;;;;;;21.31;64.93;101434.90;1667724;85;21241;-60
2021/07/08 04:47:36;;;;;;;8.33;5.10;;;;;;;21.41;64.91;101442.27;1679424;85;21321;-59
2021/07/08 04:50:45;;;;;;;11.05;5.03;;;;;;;21.49;64.72;101433.66;1650810;82;21250;-61
2021/07/08 04:53:54;;;;;;;9.10;5.70;;;;;;;21.56;65.03;101444.77;1707877;84;21898;-60
2021/07/08 04:57:06;;;;;;;6.92;4.67;;;;;;;21.64;64.62;101446.78;1724218;82;21716;-60
2021/07/08 05:00:18;;;;;;;7.90;5.33;;;;;;;21.74;64.22;101456.89;1735657;82;21296;-57
2021/07/08 05:03:28;;;;;;;9.95;5.15;;;;;;;21.82;64.25;101455.27;1735320;82;21184;-60
2021/07/08 05:06:36;;;;;;;9.75;5.25;;;;;;;21.93;64.21;101462.06;1734926;82;21200;-59
2021/07/08 05:09:43;;;;;;;18.62;5.12;;;;;;;22.04;63.73;101459.42;1735239;82;21521;-60
2021/07/08 05:12:48;;;;;;;14.98;5.70;;;;;;;22.18;63.74;101463.83;1714812;82;21291;-61
2021/07/08 05:15:59;;;;;;;9.70;4.67;;;;;;;22.31;63.55;101470.41;1727117;81;21200;-58
2021/07/08 05:19:06;;;;;;;8.43;3.92;;;;;;;22.43;63.25;101476.43;1735614;82;21192;-58
2021/07/08 05:22:14;;;;;;;8.15;3.77;;;;;;;22.56;63.23;101469.91;1706946;83;21207;-58
2021/07/08 05:25:24;;;;;;;7.87;4.33;;;;;;;22.69;62.41;101475.39;1707186;82;21934;-58
2021/07/08 05:28:35;;;;;;;8.75;4.40;;;;;;;22.82;61.77;101476.64;1707430;84;21264;-58
2021/07/08 05:31:42;;;;;;;13.72;4.22;;;;;;;22.94;61.81;101480.41;1707092;82;21359;-58
2021/07/08 05:34:51;;;;;;;9.05;3.98;;;;;;;23.06;62.09;101479.42;1707278;82;21235;-58
2021/07/08 05:37:58;;;;;;;12.88;4.15;;;;;;;23.20;61.86;101487.10;1702243;82;21351;-58
2021/07/08 05:41:06;;;;;;;6.42;3.27;;;;;;;23.31;60.40;101488.63;1696247;84;21474;-58
2021/07/08 05:44:15;;;;;;;6.92;3.40;;;;;;;23.43;59.58;101485.39;1645201;85;21228;-58
2021/07/08 05:47:20;;;;;;;10.55;3.92;;;;;;;23.55;58.21;101484.91;1723774;82;21168;-58
2021/07/08 05:50:30;;;;;;;8.63;3.83;;;;;;;23.67;58.12;101482.72;1722064;79;21252;-58
2021/07/08 05:53:39;;;;;;;6.75;3.62;;;;;;;23.79;57.57;101480.83;1767185;81;21255;-58
2021/07/08 05:56:49;;;;;;;8.63;3.42;;;;;;;23.89;57.64;101475.53;1757973;79;21355;-58
2021/07/08 06:00:03;;;;;;;13.58;3.65;;;;;;;24.02;57.21;101473.45;1753594;81;21956;-59
2021/07/08 06:03:23;;;;;;;9.93;3.45;;;;;;;24.14;56.50;101473.47;1750835;81;21690;-59
2021/07/08 06:06:51;;;;;;;6.97;2.75;;;;;;;24.26;55.31;101475.78;1744410;80;21236;-59
2021/07/08 06:09:59;;;;;;;18.60;3.40;;;;;;;24.37;53.59;101472.99;1749462;81;21225;-59
2021/07/08 06:13:08;;;;;;;6.50;2.70;;;;;;;24.45;53.08;101475.45;1763634;81;21170;-59
2021/07/08 06:16:19;;;;;;;7.55;2.60;;;;;;;24.53;52.56;101481.27;1750723;81;21208;-59
2021/07/08 06:19:29;;;;;;;5.17;2.80;;;;;;;24.63;52.79;101475.38;1759022;80;21903;-58
2021/07/08 06:22:34;;;;;;;8.40;3.12;;;;;;;24.72;52.07;101475.34;1750217;81;21220;-59
2021/07/08 06:25:47;;;;;;;6.90;2.02;;;;;;;24.80;52.29;101468.55;1750162;81;21348;-58
2021/07/08 06:28:56;;;;;;;9.20;2.70;;;;;;;24.89;52.14;101468.48;1770183;81;21691;-59
2021/07/08 06:32:08;;;;;;;6.22;2.30;;;;;;;24.98;51.35;101474.88;1732816;82;21211;-57
2021/07/08 06:35:21;;;;;;;6.55;2.80;;;;;;;25.10;50.67;101471.22;1692937;83;21338;-59
2021/07/08 06:38:35;;;;;;;5.37;2.42;;;;;;;25.19;49.48;101478.16;1692108;85;21238;-59
2021/07/08 06:41:49;;;;;;;7.53;1.95;;;;;;;25.29;48.43;101483.44;1703090;83;21280;-59
2021/07/08 06:44:56;;;;;;;4.95;2.42;;;;;;;25.40;47.96;101487.37;1739445;81;21205;-61
2021/07/08 06:48:03;;;;;;;9.45;2.27;;;;;;;25.47;46.81;101479.66;1733871;82;21204;-61
2021/07/08 06:51:12;;;;;;;4.70;2.20;;;;;;;25.58;46.59;101487.20;1739767;81;21271;-61
2021/07/08 06:54:27;;;;;;;6.58;2.05;;;;;;;25.67;46.61;101488.54;1746862;81;21213;-60
2021/07/08 06:57:34;;;;;;;5.92;2.10;;;;;;;25.75;46.43;101486.75;1731629;83;22401;-60
2021/07/08 07:00:43;;;;;;;10.53;2.30;;;;;;;25.82;45.86;101494.45;1733351;81;21370;-61
2021/07/08 07:04:06;;;;;;;10.98;2.20;;;;;;;25.88;46.01;101494.86;1744927;81;21323;-58
2021/07/08 07:07:16;;;;;;;7.70;2.12;;;;;;;25.96;44.86;101486.04;1760448;81;21259;-62
2021/07/08 07:10:25;;;;;;;5.67;1.82;;;;;;;26.03;45.48;101486.79;1761240;81;22002;-61
2021/07/08 07:13:30;;;;;;;4.67;1.80;;;;;;;26.08;44.28;101489.16;1752009;80;21336;-61
2021/07/08 07:16:39;;;;;;;7.28;2.12;;;;;;;26.13;44.57;101489.81;1761375;81;21264;-61
2021/07/08 07:19:58;;;;;;;4.33;1.60;;;;;;;26.20;43.88;101488.55;1736784;81;21713;-62
2021/07/08 07:23:06;;;;;;;6.28;1.80;;;;;;;26.28;43.66;101490.09;1727957;82;21188;-61
2021/07/08 07:26:21;;;;;;;9.15;2.00;;;;;;;26.36;42.61;101489.67;1738227;81;21779;-61
2021/07/08 07:29:27;;;;;;;5.90;1.60;;;;;;;26.37;42.00;101488.02;1736429;81;21370;-60
2021/07/08 07:32:39;;;;;;;7.90;2.22;;;;;;;26.42;42.38;101488.66;1747303;81;22039;-60
2021/07/08 07:35:46;;;;;;;6.83;2.22;;;;;;;26.44;42.58;101491.53;1745356;81;21203;-61
2021/07/08 07:38:58;;;;;;;4.92;1.80;;;;;;;26.46;42.50;101492.11;1761365;81;21319;-61
2021/07/08 07:42:11;;;;;;;7.22;2.05;;;;;;;26.54;42.84;101493.67;1739808;81;21212;-60
2021/07/08 07:45:24;;;;;;;4.80;2.00;;;;;;;26.65;42.57;101496.13;1731798;82;21428;-60
2021/07/08 07:48:34;;;;;;;9.55;1.70;;;;;;;26.73;40.27;101490.09;1730120;81;21227;-61
2021/07/08 07:51:56;;;;;;;3.60;2.12;;;;;;;26.77;39.94;101487.91;1712495;83;21329;-61
2021/07/08 07:55:06;;;;;;;5.67;1.65;;;;;;;26.83;39.42;101488.29;1716023;82;21283;-61
2021/07/08 07:58:22;;;;;;;4.33;1.50;;;;;;;26.90;39.10;101498.82;1749294;81;21224;-61
2021/07/08 08:01:40;;;;;;;8.90;2.27;;;;;;;26.95;39.32;101496.09;1770358;79;21291;-61
2021/07/08 08:05:21;;;;;;;4.97;2.70;;;;;;;27.02;37.92;101498.16;1768107;81;21193;-58
2021/07/08 08:11:23;;;;;;;5.03;1.40;;;;;;;27.14;37.37;101498.94;1771084;80;21279;-59
2021/07/08 08:14:29;;;;;;;1.85;1.37;;;;;;;27.18;35.92;101490.84;1757060;80;21177;-59
2021/07/08 08:17:43;;;;;;;9.05;3.33;;;;;;;27.19;36.85;101500.42;1768597;81;21360;-61
2021/07/08 08:20:56;;;;;;;4.85;1.80;;;;;;;27.21;36.75;101499.59;1770210;79;21284;-59
2021/07/08 08:24:16;;;;;;;10.70;1.75;;;;;;;27.26;35.69;101508.14;1762182;81;21366;-58
2021/07/08 08:27:48;;;;;;;5.92;1.30;;;;;;;27.25;35.19;101509.77;1764244;80;21729;-57
2021/07/08 08:31:07;;;;;;;6.42;2.40;;;;;;;27.26;34.19;101513.77;1762438;80;21205;-59
2021/07/08 08:34:25;;;;;;;4.45;1.80;;;;;;;27.25;33.83;101508.37;1772248;80;21433;-58
2021/07/08 08:37:45;;;;;;;4.05;1.55;;;;;;;27.19;33.88;101513.08;1753579;80;21217;-58
2021/07/08 08:40:51;;;;;;;6.03;1.70;;;;;;;27.19;33.68;101501.83;1771736;80;21712;-58
2021/07/08 08:44:07;;;;;;;6.47;1.47;;;;;;;27.21;33.33;101508.02;1747522;80;21410;-57
2021/07/08 08:47:21;;;;;;;3.62;1.50;;;;;;;27.26;33.10;101503.02;1716107;81;21619;-58
2021/07/08 08:50:29;;;;;;;7.97;1.60;;;;;;;27.34;35.03;101507.70;1742201;81;21367;-58
2021/07/08 08:53:40;;;;;;;9.60;2.02;;;;;;;27.44;34.73;101507.00;1742818;81;21488;-58
2021/07/08 08:56:54;;;;;;;2.15;1.62;;;;;;;27.51;34.85;101498.66;1740416;81;21238;-59
2021/07/08 09:00:03;;;;;;;3.30;1.40;;;;;;;27.56;34.73;101502.95;1751770;79;21212;-58
2021/07/08 09:03:16;;;;;;;2.75;1.65;;;;;;;27.59;35.52;101501.59;1769897;81;21753;-61
2021/07/08 09:06:24;;;;;;;3.22;1.60;;;;;;;27.67;36.15;101501.15;1769863;79;21210;-62
2021/07/08 09:09:37;;;;;;;7.62;1.90;;;;;;;27.75;36.74;101488.00;1770033;80;21694;-61
2021/07/08 09:12:47;;;;;;;2.98;1.67;;;;;;;27.86;36.13;101504.76;1770306;80;21189;-61
2021/07/08 09:15:57;;;;;;;7.78;1.65;;;;;;;27.88;36.01;101498.03;1770864;79;21236;-60
2021/07/08 09:19:24;;;;;;;4.05;1.77;;;;;;;27.89;35.88;101496.94;1769224;80;22266;-60
2021/07/08 09:22:38;;;;;;;3.77;1.80;;;;;;;27.92;36.47;101496.41;1740010;82;21232;-62
2021/07/08 09:25:46;;;;;;;4.70;1.77;;;;;;;27.94;36.18;101489.97;1740475;81;21264;-61
2021/07/08 09:29:03;;;;;;;4.60;1.57;;;;;;;27.98;36.01;101492.54;1740365;82;21717;-59
2021/07/08 09:32:16;;;;;;;4.03;1.30;;;;;;;28.05;35.59;101477.13;1766054;81;21174;-60
2021/07/08 09:35:25;;;;;;;4.25;1.42;;;;;;;28.12;35.22;101487.64;1764492;79;21274;-60
2021/07/08 09:38:37;;;;;;;3.95;1.40;;;;;;;28.23;34.87;101491.41;1693300;82;21357;-60
2021/07/08 09:42:00;;;;;;;4.22;1.50;;;;;;;28.31;34.19;101489.53;1706225;83;21335;-60
2021/07/08 09:45:21;;;;;;;4.62;1.55;;;;;;;28.36;33.50;101485.36;1680289;84;21247;-62
2021/07/08 09:48:30;;;;;;;64.12;4.70;;;;;;;28.39;32.24;101487.09;1720227;83;21375;-59
2021/07/08 09:51:41;;;;;;;3.47;1.47;;;;;;;28.39;33.04;101491.88;1719761;82;21749;-59
2021/07/08 09:58:14;;;;;;;214.68;8.85;;;;;;;28.48;33.89;101483.28;1771036;80;21212;-60
2021/07/08 10:01:21;;;;;;;24.77;2.80;;;;;;;28.58;33.29;101481.95;1771121;79;21726;-59
2021/07/08 10:04:31;;;;;;;7.75;1.85;;;;;;;28.61;33.13;101485.63;1770902;81;21335;-59
2021/07/08 10:07:38;;;;;;;62.48;4.30;;;;;;;28.65;32.77;101486.81;1740993;82;21267;-59
2021/07/08 10:10:49;;;;;;;3.17;1.50;;;;;;;28.73;33.23;101477.87;1740093;81;21253;-60
2021/07/08 10:14:07;;;;;;;7.50;1.42;;;;;;;28.85;32.73;101485.02;1739713;82;22156;-60
2021/07/08 10:17:26;;;;;;;10.35;2.12;;;;;;;28.93;31.97;101476.61;1739569;82;21192;-59
2021/07/08 10:20:33;;;;;;;3.00;1.35;;;;;;;29.04;33.26;101460.05;1761596;80;21248;-60
2021/07/08 10:23:44;;;;;;;5.72;1.80;;;;;;;29.21;33.07;101462.17;1764316;81;21223;-60
2021/07/08 10:26:54;;;;;;;19.80;2.25;;;;;;;29.35;33.05;101461.14;1764509;81;21216;-59
2021/07/08 10:30:03;;;;;;;4.15;1.40;;;;;;;29.45;31.71;101463.45;1763950;79;21225;-61
2021/07/08 10:33:10;;;;;;;14.20;2.33;;;;;;;29.53;32.17;101456.42;1749291;81;21248;-58
2021/07/08 10:36:17;;;;;;;4.15;1.40;;;;;;;29.58;31.31;101460.13;1727966;82;21227;-61
2021/07/08 10:39:27;;;;;;;8.70;1.50;;;;;;;29.60;31.04;101456.48;1692762;84;21816;-60
2021/07/08 10:42:54;;;;;;;;;;;;;;;29.63;30.96;101457.33;1728559;82;21804;-59
2021/07/08 10:46:13;;;;;;;6.70;2.10;;;;;;;29.69;31.37;101460.49;1732624;82;20544;-60
2021/07/08 10:49:24;;;;;;;10.53;1.85;;;;;;;29.79;32.39;101457.72;1701034;83;21220;-59
2021/07/08 10:52:54;;;;;;;2.52;1.52;;;;;;;29.93;31.73;101453.80;1719711;83;21332;-60
2021/07/08 10:56:05;;;;;;;7.45;1.70;;;;;;;29.98;29.70;101448.17;1738935;81;21220;-61
2021/07/08 10:59:22;;;;;;;4.20;2.00;;;;;;;29.91;30.04;101452.67;1739800;82;21300;-60
2021/07/08 11:02:54;;;;;;;2.65;1.27;;;;;;;29.99;30.97;101452.68;1743379;81;21293;-60
2021/07/08 11:06:05;;;;;;;6.70;1.87;;;;;;;30.15;31.40;101455.28;1770469;80;21631;-61
2021/07/08 11:09:27;;;;;;;4.67;1.37;;;;;;;30.27;31.17;101444.59;1757648;81;21844;-61
2021/07/08 11:12:40;;;;;;;5.08;1.87;;;;;;;30.36;30.36;101446.31;1739586;82;21212;-60
2021/07/08 11:16:00;;;;;;;2.62;1.35;;;;;;;30.32;30.13;101441.77;1686989;84;21421;-60
2021/07/08 11:19:12;;;;;;;3.10;1.37;;;;;;;30.36;31.04;101447.17;1705656;84;21208;-60
2021/07/08 11:22:35;;;;;;;2.95;1.12;;;;;;;30.50;30.93;101452.55;1702141;84;21211;-59
2021/07/08 11:25:51;;;;;;;3.37;1.42;;;;;;;30.62;31.31;101447.45;1720996;82;21221;-60
2021/07/08 11:29:08;;;;;;;2.85;1.15;;;;;;;30.58;29.67;101435.02;1719881;83;21368;-60
2021/07/08 11:32:45;;;;;;;3.52;1.55;;;;;;;30.51;29.67;101437.27;1783285;80;21915;-61
2021/07/08 11:35:59;;;;;;;5.90;1.55;;;;;;;30.50;30.41;101440.37;1767023;80;21354;-63
2021/07/08 11:39:09;;;;;;;9.20;1.67;;;;;;;30.65;30.70;101433.33;1767920;80;21181;-62
2021/07/08 11:42:24;;;;;;;5.40;2.15;;;;;;;30.76;30.34;101440.70;1767425;81;21192;-58
2021/07/08 11:45:32;;;;;;;5.10;1.90;;;;;;;30.62;28.86;101433.31;1767915;80;21315;-59
2021/07/08 11:48:41;;;;;;;1.82;1.27;;;;;;;30.54;29.03;101433.05;1768245;80;21227;-60
2021/07/08 11:51:48;;;;;;;4.78;1.85;;;;;;;30.52;29.51;101427.64;1768605;80;21231;-59
2021/07/08 11:55:07;;;;;;;4.70;1.50;;;;;;;30.58;29.93;101427.95;1750505;81;21257;-60
2021/07/08 12:03:54;;;;;;;5.62;1.67;;;;;;;30.63;30.17;101433.61;1871151;76;22240;-60
2021/07/08 12:06:56;;;;;;;9.48;1.52;;;;;;;30.55;30.81;101433.31;1796859;79;21587;-61
2021/07/08 12:10:05;;;;;;;3.45;1.70;;;;;;;30.62;30.90;101431.89;1791938;78;21386;-58
2021/07/08 12:13:13;;;;;;;4.30;1.52;;;;;;;30.73;31.29;101437.00;1791098;79;21367;-60
2021/07/08 12:16:20;;;;;;;6.80;1.70;;;;;;;30.75;30.41;101428.23;1760680;80;21227;-60
2021/07/08 12:19:34;;;;;;;4.87;1.75;;;;;;;30.62;30.72;101419.17;1776586;80;21434;-58
2021/07/08 12:22:51;;;;;;;4.67;1.52;;;;;;;30.53;30.96;101427.09;1768043;79;21800;-61
2021/07/08 12:25:58;;;;;;;2.98;1.40;;;;;;;30.41;31.29;101427.95;1801210;79;21228;-60
2021/07/08 12:29:22;;;;;;;6.08;2.25;;;;;;;30.24;31.29;101428.20;1769359;79;21260;-61
2021/07/08 12:32:30;;;;;;;4.25;1.50;;;;;;;30.21;31.93;101413.22;1782806;79;21907;-61
2021/07/08 12:35:54;;;;;;;5.10;1.27;;;;;;;30.26;30.78;101421.70;1761042;80;21402;-60
2021/07/08 12:39:01;;;;;;;3.92;1.57;;;;;;;30.25;30.92;101428.50;1760399;80;21208;-59
2021/07/08 12:42:08;;;;;;;2.22;1.30;;;;;;;30.21;30.88;101417.45;1763121;80;21383;-59
2021/07/08 12:45:18;;;;;;;14.43;1.92;;;;;;;30.22;30.90;101421.14;1757755;80;21879;-59
2021/07/08 12:48:23;;;;;;;5.08;1.90;;;;;;;30.17;30.66;101417.72;1725520;79;21409;-60
2021/07/08 12:51:31;;;;;;;4.65;1.57;;;;;;;30.06;31.04;101406.11;1728396;83;21248;-58
2021/07/08 12:54:38;;;;;;;4.95;1.50;;;;;;;30.06;31.04;101406.11;1720213;82;21358;-60
2021/07/08 12:57:43;;;;;;;5.40;1.65;;;;;;;30.05;30.89;101401.57;1717679;82;21418;-60
2021/07/08 13:00:50;;;;;;;6.35;1.72;;;;;;;30.04;31.57;101402.71;1765709;79;21379;-61
2021/07/08 13:03:59;;;;;;;4.58;1.37;;;;;;;30.09;30.91;101394.80;1758639;80;21726;-57
2021/07/08 13:07:12;;;;;;;3.35;1.65;;;;;;;30.09;30.91;101394.80;1762950;80;21374;-60
2021/07/08 13:10:20;;;;;;;4.05;1.42;;;;;;;30.03;31.01;101392.52;1728299;83;21389;-60
2021/07/08 13:13:37;;;;;;;3.67;1.70;;;;;;;29.94;30.83;101389.97;1776346;80;21379;-60
2021/07/08 13:16:43;;;;;;;3.42;1.55;;;;;;;29.91;31.42;101393.91;1788588;79;21351;-60
2021/07/08 13:19:54;;;;;;;2.08;1.40;;;;;;;29.91;31.42;101393.91;1789161;79;21307;-58
2021/07/08 13:23:00;;;;;;;3.35;1.47;;;;;;;29.89;30.87;101392.78;1750502;80;21358;-58
2021/07/08 13:26:23;;;;;;;4.22;1.55;;;;;;;29.86;31.60;101388.28;1742423;81;21406;-59
2021/07/08 13:29:33;;;;;;;6.08;1.92;;;;;;;29.90;32.24;101383.20;1725830;82;21313;-60
2021/07/08 13:32:43;;;;;;;2.85;1.65;;;;;;;29.98;31.93;101377.00;1716436;82;21271;-60
2021/07/08 13:35:58;;;;;;;4.33;1.52;;;;;;;30.03;31.95;101386.05;1712845;82;21228;-59
2021/07/08 13:39:09;;;;;;;3.98;1.75;;;;;;;30.05;31.93;101378.15;1764712;80;21337;-60
2021/07/08 13:42:17;;;;;;;4.62;1.95;;;;;;;30.07;32.46;101378.69;1773637;80;21174;-60
2021/07/08 13:45:37;;;;;;;5.00;2.00;;;;;;;30.11;32.62;101383.50;1785621;80;21865;-58
2021/07/08 13:48:50;;;;;;;3.75;1.70;;;;;;;30.07;32.07;101381.52;1786674;80;21833;-60
2021/07/08 13:52:03;;;;;;;2.87;1.57;;;;;;;30.07;32.35;101382.37;1786573;80;21348;-60
2021/07/08 13:55:15;;;;;;;4.53;1.37;;;;;;;30.12;32.72;101371.09;1785731;80;21284;-59
2021/07/08 13:58:24;;;;;;;4.50;1.95;;;;;;;30.20;32.73;101366.30;1748152;80;21396;-59
2021/07/08 14:01:36;;;;;;;8.78;1.98;;;;;;;30.27;32.52;101367.46;1757112;80;22138;-59
2021/07/08 14:04:46;;;;;;;3.98;1.77;;;;;;;30.28;32.30;101371.97;1743301;79;21792;-60
2021/07/08 14:07:54;;;;;;;3.35;1.57;;;;;;;30.26;31.63;101372.81;1733698;83;21739;-60
2021/07/08 14:11:01;;;;;;;5.20;1.72;;;;;;;30.14;31.42;101370.25;1732824;81;21268;-60
2021/07/08 14:14:12;;;;;;;2.45;1.60;;;;;;;30.10;31.24;101369.09;1733418;82;21239;-60
2021/07/08 14:17:20;;;;;;;4.67;1.75;;;;;;;30.05;31.32;101362.61;1733656;81;21189;-61
2021/07/08 14:20:28;;;;;;;6.42;1.42;;;;;;;30.01;32.38;101365.70;1733713;81;21180;-59
2021/07/08 14:23:38;;;;;;;6.33;1.70;;;;;;;30.00;32.32;101369.66;1733973;83;21285;-58
2021/07/08 14:26:48;;;;;;;6.15;1.90;;;;;;;30.10;33.09;101378.98;1736800;80;21232;-59
2021/07/08 14:29:55;;;;;;;3.58;1.70;;;;;;;30.11;31.81;101373.61;1750198;80;21259;-59
2021/07/08 14:33:02;;;;;;;5.83;1.50;;;;;;;30.13;32.00;101368.53;1751399;81;21824;-60
2021/07/08 14:36:09;;;;;;;3.40;1.45;;;;;;;30.13;32.00;101368.53;1764445;80;21343;-60
2021/07/08 14:39:14;;;;;;;3.70;1.50;;;;;;;30.18;32.30;101374.75;1765058;81;21659;-60
2021/07/08 14:42:23;;;;;;;4.62;1.47;;;;;;;30.20;32.56;101371.95;1764187;81;21240;-60
2021/07/08 14:45:33;;;;;;;3.45;1.30;;;;;;;30.26;32.92;101368.02;1764140;80;21205;-60
2021/07/08 14:48:42;;;;;;;3.98;1.52;;;;;;;30.30;32.70;101370.55;1712068;82;21267;-59
2021/07/08 14:51:49;;;;;;;62.53;4.12;;;;;;;30.30;32.70;101370.55;1733704;81;21313;-61
2021/07/08 14:54:58;;;;;;;11.63;2.20;;;;;;;30.35;32.22;101370.55;1733820;81;21232;-61